createdAt,value
2023-01-12T00:01:24.570Z,67.52
2023-01-12T00:06:16.547Z,67.81
2023-01-12T00:11:08.526Z,66.98
2023-01-12T00:16:20.257Z,67.36
2023-01-12T00:21:11.946Z,67.66
2023-01-12T00:26:03.779Z,68.08
2023-01-12T00:31:03.130Z,68.14
2023-01-12T00:35:55.079Z,68.90
2023-01-12T00:40:46.718Z,68.56
2023-01-12T00:45:38.287Z,68.54
2023-01-12T00:50:29.821Z,68.60
2023-01-12T00:55:21.582Z,68.40
2023-01-12T01:00:13.732Z,68.79
2023-01-12T01:05:05.690Z,69.95
2023-01-12T01:09:57.312Z,69.10
2023-01-12T01:14:48.962Z,69.37
2023-01-12T01:19:40.597Z,68.36
2023-01-12T01:24:32.302Z,68.32
2023-01-12T01:29:23.895Z,68.67
2023-01-12T01:34:15.814Z,68.93
2023-01-12T01:39:07.493Z,68.43
2023-01-12T01:44:03.691Z,68.61
2023-01-12T01:48:56.750Z,68.52
2023-01-12T01:53:48.954Z,68.97
2023-01-12T01:58:45.696Z,68.43
2023-01-12T02:03:38.385Z,68.24
2023-01-12T02:08:54.788Z,67.86
2023-01-12T02:14:05.093Z,67.79
2023-01-12T02:19:11.914Z,67.80
2023-01-12T02:24:28.426Z,67.43
2023-01-12T02:29:44.751Z,67.69
2023-01-12T02:35:02.057Z,67.57
2023-01-12T02:39:59.947Z,67.68
2023-01-12T02:45:09.843Z,67.19
2023-01-12T02:50:07.612Z,67.65
2023-01-12T02:55:02.012Z,67.46
2023-01-12T02:59:56.451Z,67.43
2023-01-12T03:04:48.454Z,67.53
2023-01-12T03:09:44.923Z,69.01
2023-01-12T03:14:38.530Z,70.84
2023-01-12T03:19:32.940Z,72.05
2023-01-12T03:24:39.147Z,72.51
2023-01-12T03:29:35.703Z,74.78
2023-01-12T03:34:28.554Z,75.80
2023-01-12T03:39:26.225Z,75.94
2023-01-12T03:44:29.114Z,76.32
2023-01-12T03:49:36.704Z,75.93
2023-01-12T03:54:30.850Z,76.68
2023-01-12T03:59:22.896Z,76.26
2023-01-12T04:04:15.238Z,76.72
2023-01-12T04:09:06.868Z,75.33
2023-01-12T04:13:58.481Z,74.85
2023-01-12T04:18:50.037Z,74.59
2023-01-12T04:23:41.559Z,73.71
2023-01-12T04:28:33.445Z,73.59
2023-01-12T04:33:25.067Z,73.80
2023-01-12T04:38:19.493Z,73.84
2023-01-12T04:43:12.017Z,74.70
2023-01-12T04:48:14.545Z,74.52
2023-01-12T04:53:07.924Z,74.85
2023-01-12T04:57:59.616Z,75.56
2023-01-12T05:02:58.057Z,76.09
2023-01-12T05:08:08.292Z,76.70
2023-01-12T05:12:59.855Z,77.21
2023-01-12T05:17:52.140Z,78.23
2023-01-12T05:22:43.714Z,78.61
2023-01-12T05:27:35.281Z,78.97
2023-01-12T05:32:27.119Z,80.28
2023-01-12T05:37:18.685Z,80.54
2023-01-12T05:42:28.964Z,81.88
2023-01-12T05:47:20.561Z,82.50
2023-01-12T05:52:12.501Z,82.14
2023-01-12T05:57:04.137Z,82.02
2023-01-12T06:01:55.817Z,82.40
2023-01-12T06:06:48.727Z,81.48
2023-01-12T06:11:58.914Z,80.83
2023-01-12T06:16:50.453Z,81.36
2023-01-12T06:21:42.105Z,80.73
2023-01-12T06:26:33.650Z,80.40
2023-01-12T06:31:25.273Z,80.86
2023-01-12T06:36:16.898Z,81.15
2023-01-12T06:41:29.694Z,81.07
2023-01-12T06:46:21.295Z,80.50
2023-01-12T06:51:12.887Z,81.36
2023-01-12T06:56:04.832Z,80.93
2023-01-12T07:01:04.562Z,82.50
2023-01-12T07:06:00.191Z,82.27
2023-01-12T07:10:51.805Z,82.27
2023-01-12T07:15:43.369Z,82.57
2023-01-12T07:20:35.601Z,82.02
2023-01-12T07:25:27.711Z,82.66
2023-01-12T07:30:21.273Z,83.07
2023-01-12T07:35:13.071Z,82.77
2023-01-12T07:40:05.129Z,82.52
2023-01-12T07:44:56.670Z,82.45
2023-01-12T07:49:48.284Z,82.94
2023-01-12T07:54:40.050Z,81.94
2023-01-12T07:59:31.591Z,82.59
2023-01-12T08:04:23.138Z,82.69
2023-01-12T08:09:14.770Z,82.07
2023-01-12T08:14:06.490Z,82.13
2023-01-12T08:19:05.715Z,81.58
2023-01-12T08:24:00.303Z,80.85
2023-01-12T08:29:02.425Z,81.47
2023-01-12T08:33:55.373Z,80.64
2023-01-12T08:38:47.038Z,80.37
2023-01-12T08:43:57.268Z,80.48
2023-01-12T08:48:48.871Z,79.94
2023-01-12T08:53:40.449Z,80.08
2023-01-12T08:58:32.176Z,79.98
2023-01-12T09:03:23.730Z,79.28
2023-01-12T09:08:15.266Z,79.65
2023-01-12T09:13:07.080Z,79.59
2023-01-12T09:17:58.632Z,79.35
2023-01-12T09:22:50.207Z,79.66
2023-01-12T09:27:41.792Z,80.06
2023-01-12T09:32:36.788Z,79.15
2023-01-12T09:37:28.911Z,79.42
2023-01-12T09:42:41.037Z,79.33
2023-01-12T09:47:40.356Z,79.51
2023-01-12T09:52:55.834Z,79.53
2023-01-12T09:58:29.021Z,79.71
2023-01-12T10:03:30.029Z,79.11
2023-01-12T10:08:30.734Z,79.79
2023-01-12T10:13:23.458Z,79.41
2023-01-12T10:18:23.734Z,80.35
2023-01-12T10:23:20.221Z,79.60
2023-01-12T10:28:24.201Z,79.42
2023-01-12T10:33:19.291Z,78.51
2023-01-12T10:38:20.011Z,78.00
2023-01-12T10:43:21.713Z,77.73
2023-01-12T10:48:21.968Z,75.91
2023-01-12T10:53:17.384Z,77.07
2023-01-12T10:58:22.595Z,76.62
2023-01-12T11:03:37.983Z,76.50
2023-01-12T11:08:29.628Z,75.60
2023-01-12T11:13:36.511Z,75.59
2023-01-12T11:18:51.195Z,75.73
2023-01-12T11:24:09.180Z,73.98
2023-01-12T11:29:14.384Z,73.44
2023-01-12T11:34:17.809Z,73.99
2023-01-12T11:39:23.522Z,74.15
2023-01-12T11:44:21.158Z,73.15
2023-01-12T11:49:36.530Z,73.12
2023-01-12T11:54:30.611Z,72.11
2023-01-12T11:59:43.863Z,72.26
2023-01-12T12:04:43.119Z,72.55
2023-01-12T12:09:46.119Z,73.92
2023-01-12T12:14:54.988Z,74.39
2023-01-12T12:19:49.601Z,74.37
2023-01-12T12:25:03.133Z,75.39
2023-01-12T12:30:17.783Z,74.99
2023-01-12T12:35:41.487Z,75.57
2023-01-12T12:41:24.352Z,76.31
2023-01-12T12:46:37.854Z,76.17
2023-01-12T12:51:32.278Z,76.40
2023-01-12T12:56:25.424Z,76.33
2023-01-12T13:01:21.392Z,76.83
2023-01-12T13:06:24.388Z,76.79
2023-01-12T13:11:16.927Z,76.71
2023-01-12T13:16:11.606Z,76.69
2023-01-12T13:21:05.509Z,76.37
2023-01-12T13:25:57.902Z,76.34
2023-01-12T13:30:55.420Z,75.76
2023-01-12T13:35:47.154Z,75.76
2023-01-12T13:40:38.917Z,74.85
2023-01-12T13:45:32.027Z,73.73
2023-01-12T13:50:27.382Z,73.04
2023-01-12T13:55:25.674Z,72.89
2023-01-12T14:00:22.112Z,73.66
2023-01-12T14:05:13.679Z,73.59
2023-01-12T14:10:19.265Z,73.40
2023-01-12T14:15:36.760Z,73.20
2023-01-12T14:20:34.057Z,74.38
2023-01-12T14:25:26.023Z,74.75
2023-01-12T14:30:17.836Z,75.25
2023-01-12T14:35:22.584Z,75.87
2023-01-12T14:40:33.995Z,74.92
2023-01-12T14:45:45.318Z,76.14
2023-01-12T14:50:36.952Z,76.17
2023-01-12T14:55:39.536Z,77.73
2023-01-12T15:00:34.520Z,77.27
2023-01-12T15:05:27.896Z,77.13
2023-01-12T15:10:19.412Z,76.05
2023-01-12T15:15:18.162Z,76.11
2023-01-12T15:20:30.913Z,74.37
2023-01-12T15:25:38.082Z,73.96
2023-01-12T15:30:32.101Z,73.90
2023-01-12T15:35:29.577Z,73.12
2023-01-12T15:40:22.405Z,73.48
2023-01-12T15:45:32.739Z,72.69
2023-01-12T15:50:24.441Z,72.45
2023-01-12T15:55:20.633Z,71.67
2023-01-12T16:00:17.311Z,71.83
2023-01-12T16:05:11.218Z,71.99
2023-01-12T16:10:03.625Z,71.29
2023-01-12T16:14:57.311Z,71.50
2023-01-12T16:19:49.134Z,71.84
2023-01-12T16:24:41.031Z,71.57
2023-01-12T16:29:32.738Z,72.30
2023-01-12T16:34:24.455Z,71.44
2023-01-12T16:39:16.418Z,72.32
2023-01-12T16:44:09.756Z,72.58
2023-01-12T16:49:04.676Z,71.99
2023-01-12T16:53:59.286Z,71.59
2023-01-12T16:58:51.879Z,71.06
2023-01-12T17:03:43.758Z,71.30
2023-01-12T17:08:35.903Z,71.44
2023-01-12T17:13:27.740Z,71.27
2023-01-12T17:18:19.678Z,71.00
2023-01-12T17:23:11.329Z,70.36
2023-01-12T17:28:02.977Z,70.22
2023-01-12T17:32:54.599Z,70.64
2023-01-12T17:37:46.183Z,71.07
2023-01-12T17:42:56.394Z,70.52
2023-01-12T17:47:48.039Z,70.26
2023-01-12T17:52:39.999Z,71.45
2023-01-12T17:57:31.651Z,72.62
2023-01-12T18:02:23.444Z,73.48
2023-01-12T18:07:15.150Z,74.82
2023-01-12T18:12:06.861Z,76.57
2023-01-12T18:16:58.547Z,76.67
2023-01-12T18:21:50.427Z,77.02
2023-01-12T18:26:42.150Z,77.76
2023-01-12T18:31:38.229Z,77.13
2023-01-12T18:36:30.539Z,77.23
2023-01-12T18:41:41.626Z,76.57
2023-01-12T18:46:53.405Z,75.10
2023-01-12T18:52:03.764Z,74.94
2023-01-12T18:56:55.390Z,74.87
2023-01-12T19:01:47.059Z,73.87
2023-01-12T19:06:44.081Z,72.81
2023-01-12T19:11:37.389Z,72.71
2023-01-12T19:16:47.852Z,72.90
2023-01-12T19:21:58.467Z,72.46
2023-01-12T19:27:08.989Z,73.03
2023-01-12T19:32:00.591Z,72.85
2023-01-12T19:36:52.887Z,73.36
2023-01-12T19:42:03.269Z,74.00
2023-01-12T19:46:54.894Z,74.26
2023-01-12T19:51:47.437Z,76.12
2023-01-12T19:56:39.053Z,76.54
2023-01-12T20:01:31.186Z,76.05
2023-01-12T20:06:22.897Z,75.08
2023-01-12T20:11:15.624Z,75.03
2023-01-12T20:16:09.365Z,74.65
2023-01-12T20:21:01.053Z,74.67
2023-01-12T20:25:52.969Z,74.11
2023-01-12T20:30:44.710Z,73.64
2023-01-12T20:35:40.600Z,73.29
2023-01-12T20:40:32.444Z,72.38
2023-01-12T20:45:24.649Z,71.77
2023-01-12T20:50:18.796Z,71.36
2023-01-12T20:55:10.413Z,71.00
2023-01-12T21:00:02.230Z,71.07
2023-01-12T21:04:53.803Z,70.63
2023-01-12T21:09:45.407Z,70.67
2023-01-12T21:14:37.264Z,70.44
2023-01-12T21:19:29.735Z,71.50
2023-01-12T21:24:21.483Z,71.19
2023-01-12T21:29:13.309Z,71.28
2023-01-12T21:34:04.952Z,71.43
2023-01-12T21:38:56.803Z,72.78
2023-01-12T21:43:49.768Z,73.08
2023-01-12T21:48:41.332Z,74.14
2023-01-12T21:53:33.309Z,74.35
2023-01-12T21:58:26.412Z,75.37
2023-01-12T22:03:18.351Z,76.27
2023-01-12T22:08:10.943Z,77.27
2023-01-12T22:13:05.755Z,77.19
2023-01-12T22:17:57.395Z,76.99
2023-01-12T22:22:49.045Z,76.66
2023-01-12T22:27:43.628Z,75.94
2023-01-12T22:32:35.337Z,75.86
2023-01-12T22:37:28.408Z,75.62
2023-01-12T22:42:21.260Z,75.58
2023-01-12T22:47:15.616Z,75.17
2023-01-12T22:52:07.847Z,75.01
2023-01-12T22:57:00.079Z,74.88
2023-01-12T23:01:53.128Z,74.95
2023-01-12T23:06:44.628Z,74.09
2023-01-12T23:11:36.224Z,74.55
2023-01-12T23:16:28.526Z,74.36
2023-01-12T23:21:26.394Z,74.35
2023-01-12T23:26:24.660Z,74.09
2023-01-12T23:31:22.161Z,73.76
2023-01-12T23:36:16.362Z,74.32
2023-01-12T23:41:18.190Z,74.24
2023-01-12T23:46:11.243Z,74.04
2023-01-12T23:51:04.170Z,74.08
2023-01-12T23:55:56.583Z,74.06
